Time;durP1;ratioP1;P1;durP2;ratioP2;P2;SDS_P1;SDS_P2;PMS_P1;PMS_P2;Temp;Humidity;BMP_temperature;BMP_pressure;BME280_temperature;BME280_humidity;BME280_pressure;Samples;Min_cycle;Max_cycle;Signal;HPM_P1;HPM_P2
2021/05/02 00:02:20;;;;;;;1.30;0.90;;;18.40;34.70;;;;;;8391754;28;20033;-59
2021/05/02 00:06:21;;;;;;;0.77;0.70;;;18.40;34.70;;;;;;8390234;28;20251;-58
2021/05/02 00:10:24;;;;;;;0.73;0.70;;;18.40;34.70;;;;;;8396087;28;20040;-58
2021/05/02 00:14:25;;;;;;;1.00;0.90;;;18.40;34.80;;;;;;8390846;28;20055;-59
2021/05/02 00:18:26;;;;;;;0.70;0.70;;;18.40;34.80;;;;;;8389830;28;20037;-58
2021/05/02 00:22:27;;;;;;;1.70;1.00;;;18.40;34.80;;;;;;8391434;28;20024;-59
2021/05/02 00:26:28;;;;;;;0.67;0.67;;;18.40;34.80;;;;;;8394662;28;20064;-58
2021/05/02 00:30:28;;;;;;;0.50;0.50;;;18.30;35.30;;;;;;8391609;28;20041;-58
2021/05/02 00:34:29;;;;;;;0.70;0.70;;;18.40;34.80;;;;;;8391008;28;20135;-58
2021/05/02 00:38:34;;;;;;;0.88;0.63;;;18.30;34.70;;;;;;8390717;28;20037;-59
2021/05/02 00:42:38;;;;;;;1.42;0.60;;;18.30;34.80;;;;;;8389423;28;20067;-59
2021/05/02 00:47:07;;;;;;;1.35;0.70;;;18.30;34.70;;;;;;8395331;28;20033;-58
2021/05/02 00:51:13;;;;;;;0.60;0.60;;;18.30;34.80;;;;;;8385421;28;20127;-58
2021/05/02 00:55:36;;;;;;;0.60;0.60;;;18.30;34.80;;;;;;8390657;28;20185;-58
2021/05/02 00:59:44;;;;;;;0.80;0.60;;;18.30;34.80;;;;;;8396630;28;20025;-58
2021/05/02 01:03:48;;;;;;;0.45;0.45;;;18.30;34.80;;;;;;8388934;28;20500;-58
2021/05/02 01:07:53;;;;;;;0.77;0.77;;;18.30;34.80;;;;;;8368837;28;20029;-58
2021/05/02 01:11:54;;;;;;;1.02;0.63;;;18.30;34.80;;;;;;8395797;28;20032;-58
2021/05/02 01:15:58;;;;;;;0.40;0.40;;;18.30;34.80;;;;;;8395392;28;20143;-58
2021/05/02 01:19:59;;;;;;;0.85;0.52;;;18.30;34.80;;;;;;8397347;28;20086;-58
2021/05/02 01:24:00;;;;;;;1.07;0.70;;;18.30;34.90;;;;;;8395051;28;20036;-58
2021/05/02 01:28:02;;;;;;;3.07;0.90;;;18.30;34.80;;;;;;8401066;28;20074;-58
2021/05/02 01:32:03;;;;;;;1.05;0.77;;;18.30;34.80;;;;;;8396504;28;20036;-59
2021/05/02 01:36:04;;;;;;;1.27;0.87;;;18.30;34.80;;;;;;8394691;28;20098;-58
2021/05/02 01:40:05;;;;;;;1.10;0.70;;;18.30;34.90;;;;;;8396123;28;20052;-59
2021/05/02 01:44:06;;;;;;;;;;;18.30;35.40;;;;;;8401041;28;20024;-58
2021/05/02 01:48:08;;;;;;;0.70;0.50;;;18.30;34.90;;;;;;8394510;28;19919;-58
2021/05/02 01:52:09;;;;;;;1.05;0.60;;;18.20;34.90;;;;;;8395962;28;20048;-58
2021/05/02 01:56:14;;;;;;;0.75;0.73;;;18.20;34.90;;;;;;8395603;28;20133;-58
2021/05/02 02:00:21;;;;;;;0.50;0.50;;;18.20;34.90;;;;;;8393788;28;20513;-58
2021/05/02 02:04:25;;;;;;;0.50;0.40;;;18.20;34.90;;;;;;8399879;28;20123;-58
2021/05/02 02:08:25;;;;;;;0.70;0.50;;;18.20;35.00;;;;;;8393942;28;20033;-59
2021/05/02 02:12:26;;;;;;;0.50;0.50;;;18.20;34.90;;;;;;8393776;28;20065;-58
2021/05/02 02:16:27;;;;;;;0.53;0.50;;;18.20;35.00;;;;;;8394985;28;20075;-58
2021/05/02 02:20:35;;;;;;;0.87;0.50;;;18.20;35.00;;;;;;8399367;28;20113;-59
2021/05/02 02:24:45;;;;;;;0.52;0.45;;;18.20;35.00;;;;;;8393136;28;20279;-58
2021/05/02 02:28:47;;;;;;;0.63;0.60;;;18.10;34.90;;;;;;8395008;28;20059;-58
2021/05/02 02:32:48;;;;;;;0.63;0.60;;;18.20;35.00;;;;;;8394737;28;20129;-58
2021/05/02 02:36:49;;;;;;;0.80;0.70;;;18.20;35.00;;;;;;8392708;28;20064;-58
2021/05/02 02:40:52;;;;;;;0.60;0.60;;;18.20;35.00;;;;;;8398900;28;20029;-58
2021/05/02 02:44:57;;;;;;;0.40;0.40;;;18.20;35.00;;;;;;8394154;28;20036;-58
2021/05/02 02:49:00;;;;;;;0.80;0.70;;;18.20;35.00;;;;;;8392673;28;20094;-58
2021/05/02 02:53:05;;;;;;;0.65;0.60;;;18.10;35.50;;;;;;8394160;28;20035;-58
2021/05/02 02:57:08;;;;;;;2.95;0.75;;;18.10;35.00;;;;;;8396671;28;20045;-58
2021/05/02 03:01:10;;;;;;;0.52;0.52;;;18.10;35.00;;;;;;8393730;28;20045;-58
2021/05/02 03:05:13;;;;;;;0.82;0.70;;;18.10;35.00;;;;;;8393680;28;20044;-58
2021/05/02 03:09:16;;;;;;;0.60;0.60;;;18.10;35.00;;;;;;8391819;28;20081;-58
2021/05/02 03:13:16;;;;;;;1.15;0.80;;;18.20;35.00;;;;;;8392358;28;20049;-58
2021/05/02 03:17:27;;;;;;;3.07;0.80;;;18.10;35.00;;;;;;8397964;28;20047;-59
2021/05/02 03:21:34;;;;;;;0.70;0.70;;;18.10;34.90;;;;;;8390947;28;20055;-58
2021/05/02 03:25:39;;;;;;;0.45;0.45;;;18.10;34.90;;;;;;8393112;28;20050;-58
2021/05/02 03:29:45;;;;;;;1.40;0.80;;;18.10;34.90;;;;;;8392862;28;20029;-58
2021/05/02 03:33:53;;;;;;;0.57;0.57;;;18.10;35.00;;;;;;8392275;28;20044;-58
2021/05/02 03:38:31;;;;;;;0.93;0.70;;;18.10;35.00;;;;;;8397146;28;20397;-58
2021/05/02 03:42:35;;;;;;;0.75;0.70;;;18.10;35.00;;;;;;8390478;28;20079;-58
2021/05/02 03:46:36;;;;;;;0.63;0.63;;;18.10;35.00;;;;;;8392528;28;20504;-58
2021/05/02 03:50:37;;;;;;;;;;;18.10;35.00;;;;;;8392900;28;20078;-58
2021/05/02 03:54:37;;;;;;;1.35;0.77;;;18.10;35.00;;;;;;8390559;28;20422;-58
2021/05/02 03:58:38;;;;;;;0.63;0.50;;;18.10;35.00;;;;;;8396241;28;20470;-58
2021/05/02 04:02:38;;;;;;;1.23;1.03;;;18.10;35.00;;;;;;8391871;28;20029;-58
2021/05/02 04:06:40;;;;;;;0.97;0.87;;;18.10;35.00;;;;;;8390453;28;20040;-57
2021/05/02 04:10:40;;;;;;;1.80;0.90;;;18.10;35.00;;;;;;8391801;28;20114;-58
2021/05/02 04:14:41;;;;;;;1.27;0.80;;;18.10;35.00;;;;;;8395849;28;20131;-58
2021/05/02 04:18:43;;;;;;;1.23;0.95;;;18.10;35.00;;;;;;8390251;28;20040;-58
2021/05/02 04:22:44;;;;;;;1.05;0.90;;;18.10;35.00;;;;;;8391705;28;20032;-58
2021/05/02 04:26:46;;;;;;;1.17;1.08;;;18.10;35.10;;;;;;8391287;28;20115;-58
2021/05/02 04:30:47;;;;;;;1.58;0.98;;;18.10;35.00;;;;;;8393525;28;20485;-58
2021/05/02 04:34:47;;;;;;;0.97;0.87;;;18.10;35.00;;;;;;8390643;28;20048;-58
2021/05/02 04:38:48;;;;;;;1.37;1.00;;;18.10;35.00;;;;;;8389566;28;20097;-58
2021/05/02 04:42:48;;;;;;;1.60;1.10;;;18.10;35.00;;;;;;8389536;28;20036;-58
2021/05/02 04:46:49;;;;;;;1.27;0.80;;;18.10;35.00;;;;;;8391031;28;20044;-58
2021/05/02 04:50:50;;;;;;;1.40;1.30;;;18.10;35.00;;;;;;8395246;28;20351;-58
2021/05/02 04:54:50;;;;;;;1.30;1.17;;;18.10;35.00;;;;;;8364021;28;20060;-58
2021/05/02 04:58:51;;;;;;;1.13;1.03;;;18.10;35.00;;;;;;8373864;28;20424;-58
2021/05/02 05:02:51;;;;;;;1.83;1.10;;;18.10;35.00;;;;;;8390777;28;20086;-58
2021/05/02 05:06:54;;;;;;;1.00;0.90;;;18.10;35.00;;;;;;8393211;28;20048;-58
2021/05/02 05:10:55;;;;;;;1.13;1.02;;;18.10;35.00;;;;;;8390382;28;20033;-58
2021/05/02 05:14:55;;;;;;;1.27;1.17;;;18.10;35.00;;;;;;8390419;28;20094;-58
2021/05/02 05:18:56;;;;;;;1.27;1.13;;;18.10;35.00;;;;;;8379574;28;20485;-58
2021/05/02 05:22:56;;;;;;;1.40;1.30;;;18.10;35.00;;;;;;8359813;28;20041;-58
2021/05/02 05:26:57;;;;;;;1.60;1.10;;;18.10;35.00;;;;;;8392507;28;20044;-58
2021/05/02 05:30:57;;;;;;;1.30;1.00;;;18.10;35.10;;;;;;8388382;28;20490;-58
2021/05/02 05:34:58;;;;;;;1.63;1.10;;;18.10;35.00;;;;;;8390282;28;20495;-58
2021/05/02 05:38:59;;;;;;;1.85;1.20;;;18.10;35.00;;;;;;8388570;28;20397;-55
2021/05/02 05:43:03;;;;;;;1.20;1.10;;;18.10;35.00;;;;;;8395712;28;20032;-58
2021/05/02 05:47:04;;;;;;;1.23;0.98;;;18.10;35.10;;;;;;8395949;28;20079;-59
2021/05/02 05:51:05;;;;;;;1.63;1.17;;;18.10;35.10;;;;;;8394081;28;20488;-57
2021/05/02 05:55:06;;;;;;;1.88;1.30;;;18.10;35.00;;;;;;8395648;28;20036;-58
2021/05/02 05:59:07;;;;;;;1.48;1.23;;;18.10;35.00;;;;;;8400430;28;20036;-58
2021/05/02 06:03:07;;;;;;;1.40;1.30;;;18.10;35.10;;;;;;8394966;28;20036;-58
2021/05/02 06:07:08;;;;;;;2.53;1.83;;;18.10;35.10;;;;;;8396437;28;20068;-58
2021/05/02 06:11:08;;;;;;;1.70;1.23;;;18.10;35.00;;;;;;8378024;27;20033;-58
2021/05/02 06:15:10;;;;;;;1.63;1.00;;;18.10;35.10;;;;;;8386287;28;20048;-59
2021/05/02 06:19:11;;;;;;;1.27;1.00;;;18.20;35.10;;;;;;8399639;28;20037;-59
2021/05/02 06:23:11;;;;;;;1.60;1.50;;;18.20;35.10;;;;;;8394721;28;20032;-58
2021/05/02 06:27:12;;;;;;;2.17;1.30;;;18.20;35.10;;;;;;8392623;28;20041;-59
2021/05/02 06:31:13;;;;;;;1.43;1.33;;;18.10;35.10;;;;;;8394645;28;20062;-58
2021/05/02 06:35:13;;;;;;;1.33;1.23;;;18.10;35.00;;;;;;8399256;28;20139;-58
2021/05/02 06:39:14;;;;;;;1.30;1.20;;;18.20;35.10;;;;;;8365110;28;20044;-58
2021/05/02 06:43:14;;;;;;;1.50;1.27;;;18.20;35.10;;;;;;8380477;28;20047;-58
2021/05/02 06:47:14;;;;;;;1.20;1.17;;;18.20;35.10;;;;;;8394600;28;20060;-58
2021/05/02 06:51:15;;;;;;;2.43;1.23;;;18.20;35.10;;;;;;8397155;28;20509;-58
2021/05/02 06:55:16;;;;;;;1.50;1.30;;;18.20;35.10;;;;;;8393599;28;20041;-58
2021/05/02 06:59:17;;;;;;;1.97;1.43;;;18.10;35.00;;;;;;8393865;28;20036;-58
2021/05/02 07:03:17;;;;;;;1.52;1.40;;;18.20;35.10;;;;;;8380160;28;20045;-58
2021/05/02 07:07:18;;;;;;;1.40;1.30;;;18.20;35.10;;;;;;8363815;28;22008;-59
2021/05/02 07:11:21;;;;;;;1.60;1.40;;;18.20;35.10;;;;;;8398118;28;20070;-58
2021/05/02 07:15:22;;;;;;;1.40;1.30;;;18.20;35.10;;;;;;8390838;28;20048;-58
2021/05/02 07:19:23;;;;;;;1.30;1.20;;;18.20;35.00;;;;;;8393178;28;20151;-58
2021/05/02 07:23:24;;;;;;;1.33;1.23;;;18.20;35.10;;;;;;8392979;28;20021;-59
2021/05/02 07:27:24;;;;;;;1.60;1.50;;;18.20;35.00;;;;;;8395832;28;20055;-58
2021/05/02 07:31:25;;;;;;;1.67;1.40;;;18.20;35.00;;;;;;8392751;28;20032;-58
2021/05/02 07:35:25;;;;;;;1.70;1.57;;;18.30;35.00;;;;;;8391848;28;20049;-59
2021/05/02 07:39:26;;;;;;;2.13;1.73;;;18.30;35.00;;;;;;8390790;28;20040;-60
2021/05/02 07:43:26;;;;;;;1.73;1.63;;;18.30;35.00;;;;;;8393790;28;20538;-58
2021/05/02 07:47:27;;;;;;;1.87;1.40;;;18.30;35.10;;;;;;8363872;28;20132;-59
2021/05/02 07:51:27;;;;;;;1.60;1.50;;;18.30;34.90;;;;;;8381251;27;20124;-59
2021/05/02 07:55:28;;;;;;;1.67;1.47;;;18.30;34.90;;;;;;8391981;28;20048;-59
2021/05/02 07:59:29;;;;;;;1.77;1.53;;;18.40;35.00;;;;;;8391578;28;20029;-58
2021/05/02 08:03:29;;;;;;;1.97;1.60;;;18.40;35.00;;;;;;8394660;28;20354;-58
2021/05/02 08:07:30;;;;;;;1.37;1.20;;;18.30;34.90;;;;;;8391838;28;20048;-59
2021/05/02 08:11:31;;;;;;;1.80;1.70;;;18.40;35.00;;;;;;8391685;28;20036;-59
2021/05/02 08:15:32;;;;;;;;;;;18.40;35.50;;;;;;8390268;28;20090;-59
2021/05/02 08:19:32;;;;;;;1.35;1.25;;;18.40;35.00;;;;;;8396320;28;19916;-58
2021/05/02 08:23:33;;;;;;;1.60;1.40;;;18.40;35.00;;;;;;8391489;28;20039;-58
2021/05/02 08:27:34;;;;;;;1.40;1.30;;;18.40;35.00;;;;;;8389714;28;20116;-58
2021/05/02 08:31:35;;;;;;;1.33;1.23;;;18.40;35.00;;;;;;8391470;28;20036;-59
2021/05/02 08:35:36;;;;;;;2.13;1.60;;;18.40;34.90;;;;;;8391101;28;20297;-59
2021/05/02 08:39:37;;;;;;;2.27;2.07;;;18.40;34.90;;;;;;8393739;28;20039;-59
2021/05/02 08:43:37;;;;;;;2.03;1.73;;;18.40;34.90;;;;;;8391031;28;20154;-59
2021/05/02 08:47:38;;;;;;;1.83;1.60;;;18.40;34.90;;;;;;8391281;28;20032;-59
2021/05/02 08:51:38;;;;;;;1.83;1.73;;;18.50;34.90;;;;;;8389224;28;20056;-58
2021/05/02 08:55:41;;;;;;;1.97;1.67;;;18.40;34.90;;;;;;8395472;28;20044;-60
2021/05/02 08:59:42;;;;;;;2.17;1.98;;;18.40;34.90;;;;;;8390798;28;20102;-57
2021/05/02 09:03:45;;;;;;;1.70;1.60;;;18.40;34.80;;;;;;8388975;28;20089;-59
2021/05/02 09:07:46;;;;;;;2.42;1.98;;;18.40;34.80;;;;;;8391199;28;20392;-60
2021/05/02 09:11:49;;;;;;;1.90;1.60;;;18.50;34.80;;;;;;8392846;28;20028;-59
2021/05/02 09:15:59;;;;;;;2.10;1.65;;;18.50;34.90;;;;;;8392179;28;20566;-57
2021/05/02 09:20:01;;;;;;;1.90;1.70;;;18.50;34.80;;;;;;8395103;28;20517;-58
2021/05/02 09:24:06;;;;;;;3.22;1.58;;;18.50;34.80;;;;;;8395323;28;20040;-59
2021/05/02 09:28:07;;;;;;;1.85;1.65;;;18.50;34.80;;;;;;8397077;28;20033;-59
2021/05/02 09:32:09;;;;;;;1.87;1.70;;;18.50;34.80;;;;;;8383464;28;20558;-58
2021/05/02 09:36:12;;;;;;;3.35;2.05;;;18.50;34.80;;;;;;8388022;28;20449;-58
2021/05/02 09:40:16;;;;;;;1.70;1.60;;;18.50;34.70;;;;;;8396818;28;20036;-59
2021/05/02 09:44:41;;;;;;;2.00;1.80;;;18.50;34.70;;;;;;8396271;28;20028;-58
2021/05/02 09:48:42;;;;;;;1.95;1.80;;;18.50;34.80;;;;;;8394580;28;20064;-58
2021/05/02 09:52:56;;;;;;;2.00;1.80;;;18.50;34.80;;;;;;8400417;28;20389;-57
2021/05/02 09:57:02;;;;;;;3.40;1.88;;;18.50;34.80;;;;;;8395750;28;20646;-58
2021/05/02 10:01:04;;;;;;;2.25;1.65;;;18.50;34.70;;;;;;8394184;28;20064;-58
2021/05/02 10:05:07;;;;;;;;;;;18.50;34.70;;;;;;8396031;28;20485;-57
2021/05/02 10:09:08;;;;;;;2.38;1.98;;;18.50;34.70;;;;;;8393419;28;19958;-58
2021/05/02 10:13:08;;;;;;;1.90;1.70;;;18.50;34.80;;;;;;8400317;28;20059;-58
2021/05/02 10:17:10;;;;;;;2.13;1.93;;;18.50;34.70;;;;;;8395312;28;20512;-58
2021/05/02 10:21:11;;;;;;;;;;;18.50;34.70;;;;;;8394241;28;20025;-58
2021/05/02 10:25:13;;;;;;;1.98;1.80;;;18.50;34.70;;;;;;8395248;28;19935;-57
2021/05/02 10:29:28;;;;;;;2.00;1.65;;;18.50;34.70;;;;;;8398368;28;20358;-58
2021/05/02 10:33:41;;;;;;;2.30;2.00;;;18.50;34.70;;;;;;8393331;28;20090;-59
2021/05/02 10:37:56;;;;;;;2.25;1.83;;;18.50;34.60;;;;;;8394672;28;20076;-58
2021/05/02 10:41:56;;;;;;;2.80;2.13;;;18.60;34.60;;;;;;8394207;28;20036;-59
2021/05/02 10:45:57;;;;;;;1.87;1.57;;;18.60;34.60;;;;;;8392539;28;20055;-59
2021/05/02 10:49:58;;;;;;;2.00;1.80;;;18.60;34.60;;;;;;8398737;28;20032;-60
2021/05/02 10:54:04;;;;;;;2.27;1.97;;;18.60;34.60;;;;;;8392353;28;20725;-51
2021/05/02 10:58:04;;;;;;;2.05;1.90;;;18.60;34.60;;;;;;8393982;28;20098;-58
2021/05/02 11:02:42;;;;;;;2.30;2.00;;;18.60;34.60;;;;;;8393936;28;20033;-59
2021/05/02 11:06:42;;;;;;;2.70;1.77;;;18.60;34.70;;;;;;8391954;28;20032;-58
2021/05/02 11:10:50;;;;;;;1.93;1.73;;;18.60;34.60;;;;;;8397131;28;20067;-59
2021/05/02 11:14:50;;;;;;;2.83;1.90;;;18.60;34.60;;;;;;8393327;28;20512;-58
2021/05/02 11:18:51;;;;;;;2.97;1.77;;;18.60;34.60;;;;;;8391772;28;20075;-58
2021/05/02 11:22:52;;;;;;;2.53;2.17;;;18.60;34.60;;;;;;8384457;28;20033;-59
2021/05/02 11:27:01;;;;;;;2.00;1.80;;;18.70;34.70;;;;;;8364590;28;20040;-58
2021/05/02 11:31:02;;;;;;;1.73;1.63;;;18.60;34.60;;;;;;8395021;28;20493;-57
2021/05/02 11:35:06;;;;;;;2.55;1.85;;;18.70;34.60;;;;;;8392771;28;20115;-58
2021/05/02 11:39:27;;;;;;;1.73;1.48;;;18.70;34.60;;;;;;8390718;28;20119;-58
2021/05/02 11:43:29;;;;;;;2.40;1.87;;;18.70;34.60;;;;;;8392332;28;20094;-58
2021/05/02 11:47:32;;;;;;;2.00;1.90;;;18.80;34.50;;;;;;8397421;28;20351;-57
2021/05/02 11:51:34;;;;;;;1.73;1.63;;;18.80;34.50;;;;;;8360412;28;20048;-57
2021/05/02 11:55:38;;;;;;;1.63;1.50;;;18.80;34.50;;;;;;8360084;28;20045;-59
2021/05/02 11:59:51;;;;;;;2.00;1.80;;;18.80;34.30;;;;;;8371036;28;20071;-59
2021/05/02 12:03:54;;;;;;;1.55;1.45;;;18.80;34.30;;;;;;8390183;28;20036;-58
2021/05/02 12:08:14;;;;;;;1.92;1.77;;;18.80;34.30;;;;;;8396445;28;20481;-59
2021/05/02 12:12:15;;;;;;;1.63;1.52;;;18.80;34.30;;;;;;8360783;28;20059;-58
2021/05/02 12:16:18;;;;;;;1.87;1.57;;;18.80;34.30;;;;;;8358693;28;20045;-58
2021/05/02 12:20:25;;;;;;;2.00;1.80;;;18.80;34.30;;;;;;8369430;28;20486;-57
2021/05/02 12:24:31;;;;;;;1.60;1.50;;;18.80;34.30;;;;;;8389517;28;20082;-59
2021/05/02 12:28:31;;;;;;;2.15;1.73;;;18.80;34.40;;;;;;8383081;28;20501;-57
2021/05/02 12:32:32;;;;;;;2.37;1.67;;;18.70;34.30;;;;;;8379183;28;20218;-59
2021/05/02 12:36:33;;;;;;;1.90;1.67;;;18.70;34.40;;;;;;8389570;28;20525;-60
2021/05/02 12:40:33;;;;;;;1.60;1.50;;;18.70;34.40;;;;;;8391322;28;20496;-58
2021/05/02 12:44:36;;;;;;;2.10;1.90;;;18.70;34.40;;;;;;8395394;28;20032;-57
2021/05/02 12:48:39;;;;;;;1.90;1.67;;;18.70;34.40;;;;;;8389149;28;20505;-58
2021/05/02 12:52:42;;;;;;;1.60;1.50;;;18.70;34.40;;;;;;8389619;28;20104;-57
2021/05/02 12:56:44;;;;;;;2.03;1.77;;;18.70;34.50;;;;;;8390946;28;20143;-58
2021/05/02 13:00:56;;;;;;;1.92;1.73;;;18.70;34.50;;;;;;8388887;28;20366;-58
2021/05/02 13:05:02;;;;;;;3.47;1.63;;;18.70;34.50;;;;;;8395240;28;20033;-58
2021/05/02 13:09:05;;;;;;;1.88;1.67;;;18.70;34.50;;;;;;8388802;28;20040;-57
2021/05/02 13:13:07;;;;;;;1.30;1.20;;;18.70;34.50;;;;;;8390563;28;20040;-58
2021/05/02 13:17:13;;;;;;;1.80;1.70;;;18.70;34.60;;;;;;8390462;28;20500;-58
2021/05/02 13:21:23;;;;;;;2.28;1.73;;;18.60;34.50;;;;;;8393021;28;20051;-58
2021/05/02 13:25:24;;;;;;;1.55;1.45;;;18.70;34.60;;;;;;8390081;28;20036;-57
2021/05/02 13:29:24;;;;;;;1.75;1.65;;;18.60;34.50;;;;;;8390130;28;20485;-58
2021/05/02 13:33:30;;;;;;;1.63;1.53;;;18.60;34.50;;;;;;8388196;28;20028;-58
2021/05/02 13:37:30;;;;;;;1.92;1.80;;;18.70;34.60;;;;;;8389891;28;20140;-58
2021/05/02 13:41:32;;;;;;;1.80;1.70;;;18.60;34.50;;;;;;8394391;28;20040;-57
2021/05/02 13:45:33;;;;;;;2.05;1.67;;;18.60;34.50;;;;;;8387969;28;20131;-57
2021/05/02 13:49:35;;;;;;;1.63;1.52;;;18.60;34.60;;;;;;8389639;28;20036;-58
2021/05/02 13:53:39;;;;;;;1.98;1.80;;;18.60;34.60;;;;;;8382411;28;20033;-58
2021/05/02 13:57:40;;;;;;;1.80;1.70;;;18.70;34.60;;;;;;8359285;28;20076;-59
2021/05/02 14:01:41;;;;;;;2.30;1.60;;;18.60;34.60;;;;;;8388560;28;20040;-58
2021/05/02 14:05:43;;;;;;;2.22;1.70;;;18.60;34.60;;;;;;8393173;28;20356;-59
2021/05/02 14:09:44;;;;;;;1.90;1.60;;;18.70;34.60;;;;;;8393654;28;20032;-59
2021/05/02 14:13:45;;;;;;;2.25;1.67;;;18.70;34.50;;;;;;8395425;28;20043;-59
2021/05/02 14:17:46;;;;;;;2.35;1.70;;;18.70;34.60;;;;;;8399776;28;20044;-59
2021/05/02 14:21:46;;;;;;;1.77;1.47;;;18.70;34.50;;;;;;8393326;28;20047;-59
2021/05/02 14:25:52;;;;;;;2.27;1.80;;;18.70;34.50;;;;;;8394211;28;20060;-59
2021/05/02 14:29:52;;;;;;;1.70;1.40;;;18.80;34.50;;;;;;8394893;28;20043;-59
2021/05/02 14:33:53;;;;;;;2.90;1.67;;;18.80;34.50;;;;;;8397629;28;20032;-57
2021/05/02 14:37:54;;;;;;;1.57;1.47;;;18.80;34.40;;;;;;8394733;28;20036;-59
2021/05/02 14:41:54;;;;;;;2.33;1.70;;;18.80;34.40;;;;;;8374926;28;20029;-59
2021/05/02 14:45:55;;;;;;;2.30;1.50;;;18.80;34.40;;;;;;8370397;28;20082;-59
2021/05/02 14:49:55;;;;;;;1.67;1.53;;;18.80;34.40;;;;;;8395256;28;20492;-58
2021/05/02 14:53:56;;;;;;;2.00;1.77;;;18.80;34.30;;;;;;8365340;28;20037;-58
2021/05/02 14:57:57;;;;;;;2.13;1.63;;;18.80;34.40;;;;;;8383414;28;20603;-59
2021/05/02 15:01:58;;;;;;;1.97;1.60;;;18.80;34.30;;;;;;8393594;28;20121;-59
2021/05/02 15:05:58;;;;;;;1.92;1.70;;;18.80;34.40;;;;;;8393662;28;20119;-57
2021/05/02 15:09:59;;;;;;;1.90;1.50;;;18.80;34.30;;;;;;8396632;28;20033;-57
2021/05/02 15:13:59;;;;;;;2.60;1.63;;;18.80;34.30;;;;;;8393671;28;20037;-58
2021/05/02 15:18:00;;;;;;;3.33;1.63;;;18.80;34.30;;;;;;8391235;28;20056;-56
2021/05/02 15:22:01;;;;;;;1.57;1.47;;;18.80;34.30;;;;;;8393086;28;20120;-59
2021/05/02 15:26:02;;;;;;;2.15;1.75;;;18.80;34.30;;;;;;8397586;28;20033;-59
2021/05/02 15:30:07;;;;;;;1.70;1.60;;;18.80;34.30;;;;;;8391170;28;20036;-60
2021/05/02 15:34:08;;;;;;;1.67;1.52;;;18.80;34.30;;;;;;8390829;28;20032;-59
2021/05/02 15:38:09;;;;;;;2.40;1.60;;;18.80;34.30;;;;;;8392468;28;20125;-58
2021/05/02 15:42:10;;;;;;;1.47;1.37;;;18.80;34.30;;;;;;8390996;28;23338;-59
2021/05/02 15:46:10;;;;;;;2.00;1.52;;;18.80;34.30;;;;;;8396931;28;20081;-59
2021/05/02 15:50:11;;;;;;;1.83;1.40;;;18.80;34.30;;;;;;8392514;28;20416;-58
2021/05/02 15:54:12;;;;;;;1.80;1.50;;;18.80;34.30;;;;;;8390737;28;20036;-60
2021/05/02 15:58:12;;;;;;;1.43;1.33;;;18.80;34.90;;;;;;8392562;28;20525;-59
2021/05/02 16:02:13;;;;;;;1.40;1.30;;;18.80;34.30;;;;;;8396643;28;20358;-59
2021/05/02 16:06:14;;;;;;;1.60;1.40;;;18.80;34.30;;;;;;8390560;28;20040;-58
2021/05/02 16:10:14;;;;;;;1.70;1.60;;;18.80;34.30;;;;;;8392226;28;20033;-58
2021/05/02 16:14:15;;;;;;;1.60;1.50;;;18.80;34.30;;;;;;8391681;28;20041;-57
2021/05/02 16:18:16;;;;;;;1.50;1.40;;;18.80;34.30;;;;;;8391814;28;20059;-57
2021/05/02 16:22:16;;;;;;;1.50;1.40;;;18.80;34.30;;;;;;8393963;28;20036;-58
2021/05/02 16:26:18;;;;;;;1.90;1.67;;;18.80;34.40;;;;;;8391431;28;20481;-57
2021/05/02 16:30:19;;;;;;;1.77;1.65;;;18.80;34.40;;;;;;8388996;28;20492;-57
2021/05/02 16:34:20;;;;;;;2.03;1.30;;;18.80;34.40;;;;;;8390300;28;20045;-58
2021/05/02 16:38:21;;;;;;;;;;;18.80;34.40;;;;;;8396269;28;20101;-58
2021/05/02 16:42:22;;;;;;;1.33;1.23;;;18.70;34.40;;;;;;8389370;28;19978;-58
2021/05/02 16:46:23;;;;;;;1.73;1.63;;;18.70;34.40;;;;;;8390962;28;20386;-59
2021/05/02 16:50:23;;;;;;;4.53;1.77;;;18.70;34.40;;;;;;8389427;28;20093;-59
2021/05/02 16:54:24;;;;;;;3.08;1.73;;;18.70;34.40;;;;;;8393567;28;20099;-56
2021/05/02 16:58:24;;;;;;;1.80;1.50;;;18.70;34.40;;;;;;8390637;28;20127;-58
2021/05/02 17:02:25;;;;;;;1.53;1.43;;;18.70;34.50;;;;;;8390668;28;20029;-59
2021/05/02 17:06:26;;;;;;;1.50;1.40;;;18.70;34.50;;;;;;8389020;28;20150;-57
2021/05/02 17:10:26;;;;;;;1.73;1.50;;;18.60;34.50;;;;;;8390377;28;20484;-57
2021/05/02 17:14:27;;;;;;;1.40;1.30;;;18.60;35.10;;;;;;8394722;28;20128;-57
2021/05/02 17:18:27;;;;;;;1.77;1.37;;;18.60;34.60;;;;;;8389131;28;20558;-57
2021/05/02 17:22:28;;;;;;;1.50;1.40;;;18.60;34.50;;;;;;8378009;28;20060;-58
2021/05/02 17:26:29;;;;;;;2.20;1.30;;;18.60;34.50;;;;;;8377117;28;20116;-57
2021/05/02 17:30:30;;;;;;;1.70;1.50;;;18.60;34.60;;;;;;8393120;28;20146;-58
2021/05/02 17:34:30;;;;;;;1.30;1.20;;;18.60;34.60;;;;;;8390310;28;20045;-58
2021/05/02 17:38:31;;;;;;;1.77;1.63;;;18.60;34.60;;;;;;8390759;28;20033;-58
2021/05/02 17:42:32;;;;;;;1.57;1.47;;;18.60;34.60;;;;;;8394851;28;20067;-58
2021/05/02 17:46:33;;;;;;;1.10;1.00;;;18.60;34.60;;;;;;8401014;28;20119;-58
2021/05/02 17:50:33;;;;;;;1.40;1.27;;;18.60;34.50;;;;;;8374653;28;20540;-58
2021/05/02 17:54:35;;;;;;;1.40;1.30;;;18.60;34.50;;;;;;8369171;28;20478;-57
2021/05/02 17:58:36;;;;;;;;;;;18.60;34.60;;;;;;8376129;28;20025;-58
2021/05/02 18:02:38;;;;;;;1.30;1.20;;;18.60;34.60;;;;;;8395992;28;20285;-57
2021/05/02 18:06:39;;;;;;;1.30;1.20;;;18.60;34.60;;;;;;8398080;28;20120;-58
2021/05/02 18:10:40;;;;;;;1.87;1.33;;;18.60;34.60;;;;;;8395381;28;20546;-57
2021/05/02 18:14:40;;;;;;;1.30;1.20;;;18.60;34.60;;;;;;8395614;28;20064;-58
2021/05/02 18:18:41;;;;;;;2.33;1.10;;;18.60;34.60;;;;;;8393445;28;20098;-57
2021/05/02 18:22:42;;;;;;;1.57;1.20;;;18.60;34.60;;;;;;8399613;27;20047;-58
2021/05/02 18:26:43;;;;;;;1.98;1.63;;;18.60;34.60;;;;;;8394785;28;20095;-57
2021/05/02 18:30:44;;;;;;;1.60;1.50;;;18.60;34.60;;;;;;8393123;28;20032;-58
2021/05/02 18:34:44;;;;;;;1.83;1.57;;;18.60;34.60;;;;;;8394850;28;20044;-59
2021/05/02 18:38:45;;;;;;;1.40;1.30;;;18.60;34.60;;;;;;8395166;28;20075;-59
2021/05/02 18:42:45;;;;;;;1.90;1.47;;;18.50;34.50;;;;;;8396175;28;20089;-57
2021/05/02 18:46:46;;;;;;;1.20;1.10;;;18.50;34.60;;;;;;8370933;28;20037;-57
2021/05/02 18:50:47;;;;;;;1.50;1.40;;;18.50;34.60;;;;;;8374529;28;20029;-57
2021/05/02 18:54:49;;;;;;;1.77;1.60;;;18.50;34.60;;;;;;8392477;28;20093;-57
2021/05/02 18:58:51;;;;;;;1.60;1.50;;;18.50;34.60;;;;;;8398663;28;20444;-58
2021/05/02 19:02:51;;;;;;;2.00;1.80;;;18.50;34.60;;;;;;8394123;28;20037;-57
2021/05/02 19:06:54;;;;;;;2.27;2.07;;;18.50;34.60;;;;;;8392243;28;20036;-57
2021/05/02 19:10:55;;;;;;;2.75;2.00;;;18.50;34.60;;;;;;8393135;28;20028;-57
2021/05/02 19:14:55;;;;;;;1.93;1.53;;;18.50;34.60;;;;;;8397875;28;20481;-56
2021/05/02 19:18:56;;;;;;;1.43;1.33;;;18.60;34.60;;;;;;8391645;28;20041;-59
2021/05/02 19:22:56;;;;;;;2.00;1.60;;;18.50;34.60;;;;;;8393576;28;20036;-56
2021/05/02 19:26:57;;;;;;;1.83;1.70;;;18.50;34.70;;;;;;8393012;28;20382;-57
2021/05/02 19:30:58;;;;;;;1.63;1.50;;;18.50;34.60;;;;;;8391367;28;20039;-57
2021/05/02 19:34:58;;;;;;;2.10;1.90;;;18.50;34.60;;;;;;8397526;28;20036;-56
2021/05/02 19:38:59;;;;;;;2.40;1.67;;;18.50;34.60;;;;;;8391687;28;20029;-56
2021/05/02 19:42:59;;;;;;;2.07;1.87;;;18.50;34.60;;;;;;8391078;28;20037;-58
2021/05/02 19:47:00;;;;;;;2.20;2.00;;;18.50;34.60;;;;;;8392509;28;20360;-57
2021/05/02 19:51:01;;;;;;;1.60;1.33;;;18.50;34.70;;;;;;8395290;28;20038;-58
2021/05/02 19:55:03;;;;;;;2.10;1.90;;;18.50;34.70;;;;;;8392130;28;20372;-58
2021/05/02 19:59:04;;;;;;;1.80;1.35;;;18.50;34.70;;;;;;8392311;28;20036;-58
2021/05/02 20:03:04;;;;;;;2.00;1.80;;;18.50;34.70;;;;;;8389771;28;20047;-58
2021/05/02 20:07:05;;;;;;;1.53;1.23;;;18.40;34.70;;;;;;8395122;28;20028;-58
2021/05/02 20:11:05;;;;;;;2.00;1.67;;;18.40;34.70;;;;;;8393966;28;20465;-57
2021/05/02 20:15:10;;;;;;;1.70;1.60;;;18.50;34.80;;;;;;8389819;28;20052;-58
2021/05/02 20:19:10;;;;;;;2.20;1.80;;;18.40;34.70;;;;;;8391409;28;20374;-58
2021/05/02 20:23:11;;;;;;;2.60;1.70;;;18.40;34.70;;;;;;8373362;28;20120;-57
2021/05/02 20:27:13;;;;;;;1.80;1.40;;;18.40;34.70;;;;;;8362880;28;20110;-58
2021/05/02 20:31:13;;;;;;;;;;;18.40;34.80;;;;;;8391023;28;20397;-58
2021/05/02 20:35:16;;;;;;;1.67;1.38;;;18.40;34.80;;;;;;8391373;28;19923;-57
2021/05/02 20:39:17;;;;;;;1.88;1.60;;;18.40;34.80;;;;;;8381870;28;20094;-58
2021/05/02 20:43:18;;;;;;;1.20;1.10;;;18.40;34.80;;;;;;8351602;28;20032;-58
2021/05/02 20:47:18;;;;;;;3.20;1.53;;;18.40;34.80;;;;;;8355377;28;20025;-58
2021/05/02 20:51:20;;;;;;;1.50;1.40;;;18.40;34.80;;;;;;8378191;28;20114;-58
2021/05/02 20:55:20;;;;;;;1.77;1.67;;;18.40;34.80;;;;;;8379579;28;20076;-57
2021/05/02 20:59:21;;;;;;;1.80;1.40;;;18.40;34.80;;;;;;8377289;28;20036;-58
2021/05/02 21:03:21;;;;;;;1.40;1.30;;;18.30;34.70;;;;;;8393665;28;20119;-58